METAR Data
IDs: Format: Raw Decoded Include TAF

Data at: 0650 UTC 29 Mar 2023

METAR for:KBBP (Bennettsville/Marlbo, SC, US)
Text:KBBP 290635Z AUTO 02006KT 10SM OVC050 10/09 A3007 RMK AO2
Temperature: 10.0°C ( 50°F)
Dewpoint: 9.0°C ( 48°F) [RH = 93%]
Pressure (altimeter):30.07 inches Hg (1018.4 mb)
Winds:from the NNE (20 degrees) at 7 MPH (6 knots; 3.1 m/s)
Visibility:10 or more sm (16+ km)
Ceiling:5000 feet AGL
Clouds: overcast cloud deck at 5000 feet AGL
QC Flag:automated observation with no human augmentation

TAF for:KBBP (Bennettsville/Marlbo, SC, US)
Text:No data found